Rechercher aéroport 
image banner adimage banner ad
image banner ad

SVGL - Galactica

Situé à Plaza Miranda, Venezuela

ICAO - SVGL, IATA -

Données fournies par Airmate  

Information générale

Coordonnées: N10°28'43" W66°38'44"
Élévation : 417 feet MSL.
 
Voir autres Aéroports à Barinas

Données opérationnelles

Accessible au public
Heure actuelle UTC:
Heure actuelle locale:
METAR: SVFM 201402Z AUTO 00000KT NCD 27/17 Q1015
Voir NOTAMs / SUP AIP / TFR affectant cet aéroport [VIEW]
Fréquences de communication: [VIEW]

Pistes:

Coordonnées de l'aéroport

Adresse: Plaza Miranda Venezuela

Vue satellite de SVGL